sensor_id;sensor_type;location;lat;lon;timestamp;P1;durP1;ratioP1;P2;durP2;ratioP2
63714;SDS011;49858;48.956;9.076;2023-04-25T00:01:32;0.65;;;0.65;;
63714;SDS011;49858;48.956;9.076;2023-04-25T00:04:03;0.80;;;0.80;;
63714;SDS011;49858;48.956;9.076;2023-04-25T00:06:33;0.40;;;0.40;;
63714;SDS011;49858;48.956;9.076;2023-04-25T00:09:02;0.60;;;0.60;;
63714;SDS011;49858;48.956;9.076;2023-04-25T00:11:33;0.73;;;0.45;;
63714;SDS011;49858;48.956;9.076;2023-04-25T00:14:01;1.13;;;1.02;;
63714;SDS011;49858;48.956;9.076;2023-04-25T00:16:30;0.50;;;0.50;;
63714;SDS011;49858;48.956;9.076;2023-04-25T00:19:00;1.85;;;1.27;;
63714;SDS011;49858;48.956;9.076;2023-04-25T00:21:29;0.55;;;0.52;;
63714;SDS011;49858;48.956;9.076;2023-04-25T00:23:59;1.17;;;1.08;;
63714;SDS011;49858;48.956;9.076;2023-04-25T00:26:27;2.08;;;1.52;;
63714;SDS011;49858;48.956;9.076;2023-04-25T00:28:55;0.98;;;0.75;;
63714;SDS011;49858;48.956;9.076;2023-04-25T00:31:23;1.00;;;0.65;;
63714;SDS011;49858;48.956;9.076;2023-04-25T00:33:50;1.25;;;1.15;;
63714;SDS011;49858;48.956;9.076;2023-04-25T00:36:19;0.57;;;0.57;;
63714;SDS011;49858;48.956;9.076;2023-04-25T00:38:48;0.50;;;0.50;;
63714;SDS011;49858;48.956;9.076;2023-04-25T00:41:16;1.50;;;1.40;;
63714;SDS011;49858;48.956;9.076;2023-04-25T00:43:44;0.82;;;0.82;;
63714;SDS011;49858;48.956;9.076;2023-04-25T00:46:14;0.50;;;0.50;;
63714;SDS011;49858;48.956;9.076;2023-04-25T00:48:42;0.55;;;0.55;;
63714;SDS011;49858;48.956;9.076;2023-04-25T00:51:10;0.57;;;0.55;;
63714;SDS011;49858;48.956;9.076;2023-04-25T00:53:44;0.73;;;0.73;;
63714;SDS011;49858;48.956;9.076;2023-04-25T00:56:17;0.57;;;0.57;;
63714;SDS011;49858;48.956;9.076;2023-04-25T00:58:46;0.40;;;0.40;;
63714;SDS011;49858;48.956;9.076;2023-04-25T01:01:16;0.77;;;0.52;;
63714;SDS011;49858;48.956;9.076;2023-04-25T01:03:44;0.80;;;0.80;;
63714;SDS011;49858;48.956;9.076;2023-04-25T01:06:13;1.10;;;0.95;;
63714;SDS011;49858;48.956;9.076;2023-04-25T01:08:42;1.17;;;1.00;;
63714;SDS011;49858;48.956;9.076;2023-04-25T01:11:10;0.38;;;0.32;;
63714;SDS011;49858;48.956;9.076;2023-04-25T01:13:39;1.60;;;1.45;;
63714;SDS011;49858;48.956;9.076;2023-04-25T01:16:07;0.50;;;0.50;;
63714;SDS011;49858;48.956;9.076;2023-04-25T01:18:35;0.60;;;0.60;;
63714;SDS011;49858;48.956;9.076;2023-04-25T01:21:08;0.88;;;0.75;;
63714;SDS011;49858;48.956;9.076;2023-04-25T01:23:36;0.50;;;0.50;;
63714;SDS011;49858;48.956;9.076;2023-04-25T01:26:06;0.40;;;0.40;;
63714;SDS011;49858;48.956;9.076;2023-04-25T01:28:36;0.40;;;0.40;;
63714;SDS011;49858;48.956;9.076;2023-04-25T01:31:08;0.30;;;0.30;;
63714;SDS011;49858;48.956;9.076;2023-04-25T01:33:37;0.88;;;0.85;;
63714;SDS011;49858;48.956;9.076;2023-04-25T01:36:05;0.32;;;0.32;;
63714;SDS011;49858;48.956;9.076;2023-04-25T01:38:35;0.57;;;0.55;;
63714;SDS011;49858;48.956;9.076;2023-04-25T01:41:03;0.47;;;0.47;;
63714;SDS011;49858;48.956;9.076;2023-04-25T01:43:32;0.70;;;0.70;;
63714;SDS011;49858;48.956;9.076;2023-04-25T01:46:00;2.75;;;0.77;;
63714;SDS011;49858;48.956;9.076;2023-04-25T01:48:28;0.40;;;0.40;;
63714;SDS011;49858;48.956;9.076;2023-04-25T01:50:56;0.65;;;0.65;;
63714;SDS011;49858;48.956;9.076;2023-04-25T01:53:24;0.47;;;0.47;;
63714;SDS011;49858;48.956;9.076;2023-04-25T01:55:54;0.93;;;0.93;;
63714;SDS011;49858;48.956;9.076;2023-04-25T01:58:24;0.93;;;0.85;;
63714;SDS011;49858;48.956;9.076;2023-04-25T02:01:02;0.30;;;0.30;;
63714;SDS011;49858;48.956;9.076;2023-04-25T02:03:38;0.75;;;0.65;;
63714;SDS011;49858;48.956;9.076;2023-04-25T02:06:12;0.63;;;0.63;;
63714;SDS011;49858;48.956;9.076;2023-04-25T02:08:43;0.85;;;0.85;;
63714;SDS011;49858;48.956;9.076;2023-04-25T02:11:13;1.30;;;0.88;;
63714;SDS011;49858;48.956;9.076;2023-04-25T02:13:47;8.45;;;1.45;;
63714;SDS011;49858;48.956;9.076;2023-04-25T02:16:32;0.90;;;0.90;;
63714;SDS011;49858;48.956;9.076;2023-04-25T02:19:00;0.73;;;0.73;;
63714;SDS011;49858;48.956;9.076;2023-04-25T02:21:29;0.30;;;0.30;;
63714;SDS011;49858;48.956;9.076;2023-04-25T02:23:58;0.40;;;0.40;;
63714;SDS011;49858;48.956;9.076;2023-04-25T02:26:29;0.30;;;0.30;;
63714;SDS011;49858;48.956;9.076;2023-04-25T02:28:59;0.30;;;0.30;;
63714;SDS011;49858;48.956;9.076;2023-04-25T02:31:27;0.95;;;0.95;;
63714;SDS011;49858;48.956;9.076;2023-04-25T02:33:56;0.65;;;0.65;;
63714;SDS011;49858;48.956;9.076;2023-04-25T02:36:26;1.17;;;0.95;;
63714;SDS011;49858;48.956;9.076;2023-04-25T02:38:53;0.60;;;0.60;;
63714;SDS011;49858;48.956;9.076;2023-04-25T02:41:21;0.50;;;0.40;;
63714;SDS011;49858;48.956;9.076;2023-04-25T02:43:50;0.65;;;0.65;;
63714;SDS011;49858;48.956;9.076;2023-04-25T02:46:18;0.60;;;0.60;;
63714;SDS011;49858;48.956;9.076;2023-04-25T02:49:03;0.50;;;0.50;;
63714;SDS011;49858;48.956;9.076;2023-04-25T02:51:31;0.30;;;0.30;;
63714;SDS011;49858;48.956;9.076;2023-04-25T02:53:59;0.30;;;0.30;;
63714;SDS011;49858;48.956;9.076;2023-04-25T02:56:27;0.73;;;0.73;;
63714;SDS011;49858;48.956;9.076;2023-04-25T02:58:57;0.88;;;0.70;;
63714;SDS011;49858;48.956;9.076;2023-04-25T03:01:25;1.42;;;1.33;;
63714;SDS011;49858;48.956;9.076;2023-04-25T03:03:53;0.60;;;0.60;;
63714;SDS011;49858;48.956;9.076;2023-04-25T03:06:21;0.30;;;0.30;;
63714;SDS011;49858;48.956;9.076;2023-04-25T03:08:49;0.90;;;0.90;;
63714;SDS011;49858;48.956;9.076;2023-04-25T03:11:17;1.70;;;1.60;;
63714;SDS011;49858;48.956;9.076;2023-04-25T03:13:46;0.95;;;0.55;;
63714;SDS011;49858;48.956;9.076;2023-04-25T03:16:16;0.88;;;0.88;;
63714;SDS011;49858;48.956;9.076;2023-04-25T03:18:44;0.30;;;0.30;;
63714;SDS011;49858;48.956;9.076;2023-04-25T03:21:11;0.60;;;0.60;;
63714;SDS011;49858;48.956;9.076;2023-04-25T03:23:39;3.22;;;1.73;;
63714;SDS011;49858;48.956;9.076;2023-04-25T03:26:07;1.77;;;1.10;;
63714;SDS011;49858;48.956;9.076;2023-04-25T03:28:35;0.85;;;0.85;;
63714;SDS011;49858;48.956;9.076;2023-04-25T03:31:03;2.55;;;1.55;;
63714;SDS011;49858;48.956;9.076;2023-04-25T03:33:32;1.55;;;1.45;;
63714;SDS011;49858;48.956;9.076;2023-04-25T03:36:00;2.78;;;1.45;;
63714;SDS011;49858;48.956;9.076;2023-04-25T03:38:29;0.30;;;0.30;;
63714;SDS011;49858;48.956;9.076;2023-04-25T03:40:57;0.70;;;0.70;;
63714;SDS011;49858;48.956;9.076;2023-04-25T03:43:39;1.23;;;1.13;;
63714;SDS011;49858;48.956;9.076;2023-04-25T03:46:11;0.40;;;0.40;;
63714;SDS011;49858;48.956;9.076;2023-04-25T03:48:41;3.30;;;0.93;;
63714;SDS011;49858;48.956;9.076;2023-04-25T03:51:14;1.35;;;0.95;;
63714;SDS011;49858;48.956;9.076;2023-04-25T03:53:43;0.73;;;0.73;;
63714;SDS011;49858;48.956;9.076;2023-04-25T03:56:14;1.10;;;1.00;;
63714;SDS011;49858;48.956;9.076;2023-04-25T03:58:44;0.73;;;0.73;;
63714;SDS011;49858;48.956;9.076;2023-04-25T04:01:16;0.28;;;0.28;;
63714;SDS011;49858;48.956;9.076;2023-04-25T04:03:45;1.10;;;1.00;;
63714;SDS011;49858;48.956;9.076;2023-04-25T04:06:16;1.55;;;0.63;;
63714;SDS011;49858;48.956;9.076;2023-04-25T04:08:48;0.70;;;0.60;;
63714;SDS011;49858;48.956;9.076;2023-04-25T04:11:16;0.22;;;0.22;;
63714;SDS011;49858;48.956;9.076;2023-04-25T04:13:44;2.10;;;0.60;;
63714;SDS011;49858;48.956;9.076;2023-04-25T04:16:12;0.50;;;0.50;;
63714;SDS011;49858;48.956;9.076;2023-04-25T04:18:40;0.57;;;0.57;;
63714;SDS011;49858;48.956;9.076;2023-04-25T04:21:09;1.30;;;0.98;;
63714;SDS011;49858;48.956;9.076;2023-04-25T04:23:39;1.15;;;0.55;;
63714;SDS011;49858;48.956;9.076;2023-04-25T04:26:08;0.30;;;0.30;;
63714;SDS011;49858;48.956;9.076;2023-04-25T04:29:00;0.68;;;0.68;;
63714;SDS011;49858;48.956;9.076;2023-04-25T04:31:39;0.85;;;0.75;;
63714;SDS011;49858;48.956;9.076;2023-04-25T04:34:07;4.35;;;1.55;;
63714;SDS011;49858;48.956;9.076;2023-04-25T04:36:37;0.35;;;0.35;;
63714;SDS011;49858;48.956;9.076;2023-04-25T04:39:06;0.80;;;0.80;;
63714;SDS011;49858;48.956;9.076;2023-04-25T04:41:41;1.33;;;1.20;;
63714;SDS011;49858;48.956;9.076;2023-04-25T04:44:13;0.77;;;0.60;;
63714;SDS011;49858;48.956;9.076;2023-04-25T04:46:48;2.25;;;0.93;;
63714;SDS011;49858;48.956;9.076;2023-04-25T04:49:37;0.70;;;0.70;;
63714;SDS011;49858;48.956;9.076;2023-04-25T04:52:26;0.43;;;0.43;;
63714;SDS011;49858;48.956;9.076;2023-04-25T04:55:14;0.75;;;0.75;;
63714;SDS011;49858;48.956;9.076;2023-04-25T04:57:54;0.70;;;0.70;;
63714;SDS011;49858;48.956;9.076;2023-04-25T05:00:35;0.93;;;0.93;;
63714;SDS011;49858;48.956;9.076;2023-04-25T05:03:24;1.65;;;1.15;;
63714;SDS011;49858;48.956;9.076;2023-04-25T05:06:12;0.30;;;0.30;;
63714;SDS011;49858;48.956;9.076;2023-04-25T05:09:05;0.93;;;0.45;;
63714;SDS011;49858;48.956;9.076;2023-04-25T05:12:02;1.00;;;0.85;;
63714;SDS011;49858;48.956;9.076;2023-04-25T05:14:48;0.50;;;0.35;;
63714;SDS011;49858;48.956;9.076;2023-04-25T05:17:34;1.48;;;1.15;;
63714;SDS011;49858;48.956;9.076;2023-04-25T05:20:11;0.82;;;0.70;;
63714;SDS011;49858;48.956;9.076;2023-04-25T05:23:09;4.13;;;0.85;;
63714;SDS011;49858;48.956;9.076;2023-04-25T05:26:04;2.55;;;2.25;;
63714;SDS011;49858;48.956;9.076;2023-04-25T05:28:58;0.95;;;0.90;;
63714;SDS011;49858;48.956;9.076;2023-04-25T05:31:58;2.75;;;2.20;;
63714;SDS011;49858;48.956;9.076;2023-04-25T05:34:27;1.13;;;1.02;;
63714;SDS011;49858;48.956;9.076;2023-04-25T05:36:58;1.35;;;0.85;;
63714;SDS011;49858;48.956;9.076;2023-04-25T05:39:27;0.65;;;0.57;;
63714;SDS011;49858;48.956;9.076;2023-04-25T05:42:25;1.45;;;1.35;;
63714;SDS011;49858;48.956;9.076;2023-04-25T05:45:15;1.17;;;0.80;;
63714;SDS011;49858;48.956;9.076;2023-04-25T05:48:10;0.70;;;0.70;;
63714;SDS011;49858;48.956;9.076;2023-04-25T05:50:48;1.95;;;0.93;;
63714;SDS011;49858;48.956;9.076;2023-04-25T05:53:45;0.82;;;0.65;;
63714;SDS011;49858;48.956;9.076;2023-04-25T05:56:13;1.67;;;1.02;;
63714;SDS011;49858;48.956;9.076;2023-04-25T05:58:43;2.53;;;0.95;;
63714;SDS011;49858;48.956;9.076;2023-04-25T06:01:11;1.48;;;1.00;;
63714;SDS011;49858;48.956;9.076;2023-04-25T06:03:40;2.00;;;0.80;;
63714;SDS011;49858;48.956;9.076;2023-04-25T06:06:10;0.85;;;0.85;;
63714;SDS011;49858;48.956;9.076;2023-04-25T06:08:39;0.60;;;0.50;;
63714;SDS011;49858;48.956;9.076;2023-04-25T06:11:10;1.52;;;1.00;;
63714;SDS011;49858;48.956;9.076;2023-04-25T06:13:40;0.75;;;0.63;;
63714;SDS011;49858;48.956;9.076;2023-04-25T06:16:09;3.67;;;0.80;;
63714;SDS011;49858;48.956;9.076;2023-04-25T06:18:37;0.75;;;0.75;;
63714;SDS011;49858;48.956;9.076;2023-04-25T06:21:05;0.95;;;0.70;;
63714;SDS011;49858;48.956;9.076;2023-04-25T06:23:33;1.27;;;0.65;;
63714;SDS011;49858;48.956;9.076;2023-04-25T06:26:03;0.95;;;0.63;;
63714;SDS011;49858;48.956;9.076;2023-04-25T06:28:33;1.98;;;1.35;;
63714;SDS011;49858;48.956;9.076;2023-04-25T06:31:01;0.43;;;0.43;;
63714;SDS011;49858;48.956;9.076;2023-04-25T06:33:30;0.88;;;0.88;;
63714;SDS011;49858;48.956;9.076;2023-04-25T06:35:58;2.47;;;1.92;;
63714;SDS011;49858;48.956;9.076;2023-04-25T06:38:27;0.30;;;0.30;;
63714;SDS011;49858;48.956;9.076;2023-04-25T06:40:56;0.70;;;0.70;;
63714;SDS011;49858;48.956;9.076;2023-04-25T06:43:27;1.00;;;0.85;;
63714;SDS011;49858;48.956;9.076;2023-04-25T06:46:20;1.80;;;1.70;;
63714;SDS011;49858;48.956;9.076;2023-04-25T06:48:50;1.35;;;1.25;;
63714;SDS011;49858;48.956;9.076;2023-04-25T06:51:18;0.60;;;0.60;;
63714;SDS011;49858;48.956;9.076;2023-04-25T06:53:50;1.10;;;1.10;;
63714;SDS011;49858;48.956;9.076;2023-04-25T06:56:26;0.80;;;0.80;;
63714;SDS011;49858;48.956;9.076;2023-04-25T06:59:02;0.93;;;0.93;;
63714;SDS011;49858;48.956;9.076;2023-04-25T07:01:38;1.55;;;0.75;;
63714;SDS011;49858;48.956;9.076;2023-04-25T07:04:15;0.85;;;0.50;;
63714;SDS011;49858;48.956;9.076;2023-04-25T07:06:48;1.25;;;1.15;;
63714;SDS011;49858;48.956;9.076;2023-04-25T07:09:21;0.60;;;0.60;;
63714;SDS011;49858;48.956;9.076;2023-04-25T07:11:50;1.77;;;1.23;;
63714;SDS011;49858;48.956;9.076;2023-04-25T07:14:18;2.25;;;1.05;;
63714;SDS011;49858;48.956;9.076;2023-04-25T07:16:47;1.48;;;1.38;;
63714;SDS011;49858;48.956;9.076;2023-04-25T07:19:17;4.10;;;1.05;;
63714;SDS011;49858;48.956;9.076;2023-04-25T07:21:45;1.15;;;0.60;;
63714;SDS011;49858;48.956;9.076;2023-04-25T07:24:13;1.83;;;1.00;;
63714;SDS011;49858;48.956;9.076;2023-04-25T07:26:44;2.15;;;1.17;;
63714;SDS011;49858;48.956;9.076;2023-04-25T07:29:26;1.52;;;0.80;;
63714;SDS011;49858;48.956;9.076;2023-04-25T07:31:58;0.40;;;0.40;;
63714;SDS011;49858;48.956;9.076;2023-04-25T07:34:27;1.63;;;1.00;;
63714;SDS011;49858;48.956;9.076;2023-04-25T07:36:56;1.60;;;0.73;;
63714;SDS011;49858;48.956;9.076;2023-04-25T07:39:30;0.75;;;0.75;;
63714;SDS011;49858;48.956;9.076;2023-04-25T07:41:58;0.68;;;0.68;;
63714;SDS011;49858;48.956;9.076;2023-04-25T07:44:28;1.85;;;1.30;;
63714;SDS011;49858;48.956;9.076;2023-04-25T07:47:00;2.10;;;1.40;;
63714;SDS011;49858;48.956;9.076;2023-04-25T07:49:32;2.30;;;0.90;;
63714;SDS011;49858;48.956;9.076;2023-04-25T07:52:04;2.25;;;1.65;;
63714;SDS011;49858;48.956;9.076;2023-04-25T07:54:35;0.93;;;0.63;;
63714;SDS011;49858;48.956;9.076;2023-04-25T07:57:13;2.25;;;1.70;;
63714;SDS011;49858;48.956;9.076;2023-04-25T08:00:01;1.38;;;1.08;;
63714;SDS011;49858;48.956;9.076;2023-04-25T08:02:39;1.25;;;0.70;;
63714;SDS011;49858;48.956;9.076;2023-04-25T08:05:16;0.77;;;0.70;;
63714;SDS011;49858;48.956;9.076;2023-04-25T08:07:58;1.38;;;0.95;;
63714;SDS011;49858;48.956;9.076;2023-04-25T08:10:28;0.63;;;0.63;;
63714;SDS011;49858;48.956;9.076;2023-04-25T08:12:56;1.45;;;1.35;;
63714;SDS011;49858;48.956;9.076;2023-04-25T08:15:24;1.33;;;0.82;;
63714;SDS011;49858;48.956;9.076;2023-04-25T08:17:53;2.05;;;1.27;;
63714;SDS011;49858;48.956;9.076;2023-04-25T08:20:25;1.17;;;0.90;;
63714;SDS011;49858;48.956;9.076;2023-04-25T08:22:55;1.10;;;1.00;;
63714;SDS011;49858;48.956;9.076;2023-04-25T08:25:36;1.13;;;0.65;;
63714;SDS011;49858;48.956;9.076;2023-04-25T08:28:05;2.85;;;1.10;;
63714;SDS011;49858;48.956;9.076;2023-04-25T08:30:36;2.35;;;1.55;;
63714;SDS011;49858;48.956;9.076;2023-04-25T08:33:05;1.35;;;1.25;;
63714;SDS011;49858;48.956;9.076;2023-04-25T08:35:54;2.85;;;2.25;;
63714;SDS011;49858;48.956;9.076;2023-04-25T08:38:23;2.78;;;1.45;;
63714;SDS011;49858;48.956;9.076;2023-04-25T08:40:52;3.17;;;1.60;;
63714;SDS011;49858;48.956;9.076;2023-04-25T08:43:22;3.45;;;2.25;;
63714;SDS011;49858;48.956;9.076;2023-04-25T08:45:51;2.20;;;1.23;;
63714;SDS011;49858;48.956;9.076;2023-04-25T08:48:36;3.10;;;1.73;;
63714;SDS011;49858;48.956;9.076;2023-04-25T08:51:07;1.38;;;0.95;;
63714;SDS011;49858;48.956;9.076;2023-04-25T08:53:37;1.20;;;1.05;;
63714;SDS011;49858;48.956;9.076;2023-04-25T08:56:09;4.75;;;1.98;;
63714;SDS011;49858;48.956;9.076;2023-04-25T08:58:40;4.75;;;2.45;;
63714;SDS011;49858;48.956;9.076;2023-04-25T09:01:08;2.92;;;1.83;;
63714;SDS011;49858;48.956;9.076;2023-04-25T09:03:45;1.38;;;1.23;;
63714;SDS011;49858;48.956;9.076;2023-04-25T09:06:15;2.05;;;1.15;;
63714;SDS011;49858;48.956;9.076;2023-04-25T09:08:49;8.70;;;2.83;;
63714;SDS011;49858;48.956;9.076;2023-04-25T09:11:18;7.30;;;3.53;;
63714;SDS011;49858;48.956;9.076;2023-04-25T09:13:51;4.70;;;2.10;;
63714;SDS011;49858;48.956;9.076;2023-04-25T09:19:47;2.90;;;1.60;;
63714;SDS011;49858;48.956;9.076;2023-04-25T09:22:26;4.55;;;2.03;;
63714;SDS011;49858;48.956;9.076;2023-04-25T09:24:54;5.95;;;1.85;;
63714;SDS011;49858;48.956;9.076;2023-04-25T09:27:25;1.27;;;1.02;;
63714;SDS011;49858;48.956;9.076;2023-04-25T09:30:03;2.28;;;1.02;;
63714;SDS011;49858;48.956;9.076;2023-04-25T09:32:55;5.15;;;3.58;;
63714;SDS011;49858;48.956;9.076;2023-04-25T09:35:24;2.25;;;2.00;;
63714;SDS011;49858;48.956;9.076;2023-04-25T09:37:59;5.15;;;3.28;;
63714;SDS011;49858;48.956;9.076;2023-04-25T09:40:45;7.88;;;4.38;;
63714;SDS011;49858;48.956;9.076;2023-04-25T09:43:24;6.88;;;1.98;;
63714;SDS011;49858;48.956;9.076;2023-04-25T09:45:53;4.65;;;3.20;;
63714;SDS011;49858;48.956;9.076;2023-04-25T09:48:26;4.60;;;2.22;;
63714;SDS011;49858;48.956;9.076;2023-04-25T09:51:05;4.03;;;1.98;;
63714;SDS011;49858;48.956;9.076;2023-04-25T09:53:36;3.20;;;1.95;;
63714;SDS011;49858;48.956;9.076;2023-04-25T09:56:21;3.20;;;1.10;;
63714;SDS011;49858;48.956;9.076;2023-04-25T09:58:49;2.88;;;1.65;;
63714;SDS011;49858;48.956;9.076;2023-04-25T10:01:21;4.13;;;2.63;;
63714;SDS011;49858;48.956;9.076;2023-04-25T10:04:04;2.47;;;1.92;;
63714;SDS011;49858;48.956;9.076;2023-04-25T10:06:52;2.63;;;2.13;;
63714;SDS011;49858;48.956;9.076;2023-04-25T10:09:24;2.25;;;1.67;;
63714;SDS011;49858;48.956;9.076;2023-04-25T10:11:55;1.10;;;1.00;;
63714;SDS011;49858;48.956;9.076;2023-04-25T10:14:24;0.70;;;0.60;;
63714;SDS011;49858;48.956;9.076;2023-04-25T10:16:52;0.40;;;0.40;;
63714;SDS011;49858;48.956;9.076;2023-04-25T10:19:22;0.75;;;0.75;;
63714;SDS011;49858;48.956;9.076;2023-04-25T10:21:51;0.70;;;0.70;;
63714;SDS011;49858;48.956;9.076;2023-04-25T10:24:25;0.90;;;0.90;;
63714;SDS011;49858;48.956;9.076;2023-04-25T10:26:54;0.60;;;0.60;;
63714;SDS011;49858;48.956;9.076;2023-04-25T10:29:24;2.47;;;1.80;;
63714;SDS011;49858;48.956;9.076;2023-04-25T10:31:52;4.47;;;2.63;;
63714;SDS011;49858;48.956;9.076;2023-04-25T10:34:23;3.65;;;2.38;;
63714;SDS011;49858;48.956;9.076;2023-04-25T10:36:53;2.85;;;2.13;;
63714;SDS011;49858;48.956;9.076;2023-04-25T10:39:22;0.73;;;0.73;;
63714;SDS011;49858;48.956;9.076;2023-04-25T10:41:56;2.65;;;2.22;;
63714;SDS011;49858;48.956;9.076;2023-04-25T10:44:26;2.05;;;1.95;;
63714;SDS011;49858;48.956;9.076;2023-04-25T10:46:54;1.13;;;1.13;;
63714;SDS011;49858;48.956;9.076;2023-04-25T10:49:35;3.28;;;2.30;;
63714;SDS011;49858;48.956;9.076;2023-04-25T10:52:11;0.98;;;0.98;;
63714;SDS011;49858;48.956;9.076;2023-04-25T10:54:40;2.72;;;2.45;;
63714;SDS011;49858;48.956;9.076;2023-04-25T11:00:08;3.38;;;2.38;;
63714;SDS011;49858;48.956;9.076;2023-04-25T11:02:43;5.53;;;3.75;;
63714;SDS011;49858;48.956;9.076;2023-04-25T11:05:20;1.55;;;1.40;;
63714;SDS011;49858;48.956;9.076;2023-04-25T11:07:50;0.52;;;0.52;;
63714;SDS011;49858;48.956;9.076;2023-04-25T11:10:32;4.13;;;1.52;;
63714;SDS011;49858;48.956;9.076;2023-04-25T11:13:03;3.00;;;1.75;;
63714;SDS011;49858;48.956;9.076;2023-04-25T11:15:31;1.90;;;1.60;;
63714;SDS011;49858;48.956;9.076;2023-04-25T11:17:59;1.58;;;1.48;;
63714;SDS011;49858;48.956;9.076;2023-04-25T11:20:27;3.53;;;2.47;;
63714;SDS011;49858;48.956;9.076;2023-04-25T11:22:57;15.32;;;5.53;;
63714;SDS011;49858;48.956;9.076;2023-04-25T11:25:26;1.75;;;1.65;;
63714;SDS011;49858;48.956;9.076;2023-04-25T11:27:54;2.90;;;1.30;;
63714;SDS011;49858;48.956;9.076;2023-04-25T11:30:25;7.10;;;3.45;;
63714;SDS011;49858;48.956;9.076;2023-04-25T11:32:53;2.90;;;1.60;;
63714;SDS011;49858;48.956;9.076;2023-04-25T11:35:21;2.67;;;2.28;;
63714;SDS011;49858;48.956;9.076;2023-04-25T11:37:51;1.27;;;1.27;;
63714;SDS011;49858;48.956;9.076;2023-04-25T11:40:19;3.42;;;2.15;;
63714;SDS011;49858;48.956;9.076;2023-04-25T11:42:47;2.10;;;1.40;;
63714;SDS011;49858;48.956;9.076;2023-04-25T11:45:15;11.40;;;2.47;;
63714;SDS011;49858;48.956;9.076;2023-04-25T11:47:49;7.47;;;3.60;;
63714;SDS011;49858;48.956;9.076;2023-04-25T11:50:17;5.05;;;3.45;;
63714;SDS011;49858;48.956;9.076;2023-04-25T11:52:45;0.73;;;0.73;;
63714;SDS011;49858;48.956;9.076;2023-04-25T11:55:14;2.00;;;1.77;;
63714;SDS011;49858;48.956;9.076;2023-04-25T11:57:44;4.70;;;3.50;;
63714;SDS011;49858;48.956;9.076;2023-04-25T12:00:15;4.28;;;2.38;;
63714;SDS011;49858;48.956;9.076;2023-04-25T12:02:45;3.65;;;3.17;;
63714;SDS011;49858;48.956;9.076;2023-04-25T12:05:16;1.77;;;1.67;;
63714;SDS011;49858;48.956;9.076;2023-04-25T12:07:47;9.95;;;4.95;;
63714;SDS011;49858;48.956;9.076;2023-04-25T12:10:16;0.75;;;0.75;;
63714;SDS011;49858;48.956;9.076;2023-04-25T12:12:45;3.15;;;1.58;;
63714;SDS011;49858;48.956;9.076;2023-04-25T12:15:14;3.60;;;3.10;;
63714;SDS011;49858;48.956;9.076;2023-04-25T12:17:45;0.90;;;0.90;;
63714;SDS011;49858;48.956;9.076;2023-04-25T12:20:16;2.25;;;1.90;;
63714;SDS011;49858;48.956;9.076;2023-04-25T12:22:46;2.03;;;1.85;;
63714;SDS011;49858;48.956;9.076;2023-04-25T12:28:14;5.65;;;3.95;;
63714;SDS011;49858;48.956;9.076;2023-04-25T12:30:52;1.92;;;1.83;;
63714;SDS011;49858;48.956;9.076;2023-04-25T12:33:21;3.85;;;3.28;;
63714;SDS011;49858;48.956;9.076;2023-04-25T12:35:51;5.57;;;2.28;;
63714;SDS011;49858;48.956;9.076;2023-04-25T12:38:23;11.35;;;4.55;;
63714;SDS011;49858;48.956;9.076;2023-04-25T12:40:51;2.85;;;1.85;;
63714;SDS011;49858;48.956;9.076;2023-04-25T12:43:19;1.88;;;1.70;;
63714;SDS011;49858;48.956;9.076;2023-04-25T12:45:48;4.70;;;3.67;;
63714;SDS011;49858;48.956;9.076;2023-04-25T12:48:17;1.75;;;1.65;;
63714;SDS011;49858;48.956;9.076;2023-04-25T12:50:45;8.75;;;6.03;;
63714;SDS011;49858;48.956;9.076;2023-04-25T12:53:17;4.82;;;4.35;;
63714;SDS011;49858;48.956;9.076;2023-04-25T12:55:45;9.50;;;4.95;;
63714;SDS011;49858;48.956;9.076;2023-04-25T12:58:14;6.07;;;4.40;;
63714;SDS011;49858;48.956;9.076;2023-04-25T13:00:42;4.20;;;1.70;;
63714;SDS011;49858;48.956;9.076;2023-04-25T13:03:10;9.70;;;5.68;;
63714;SDS011;49858;48.956;9.076;2023-04-25T13:05:39;1.05;;;0.93;;
63714;SDS011;49858;48.956;9.076;2023-04-25T13:08:07;7.60;;;4.75;;
63714;SDS011;49858;48.956;9.076;2023-04-25T13:10:36;1.65;;;1.55;;
63714;SDS011;49858;48.956;9.076;2023-04-25T13:13:05;9.45;;;5.30;;
63714;SDS011;49858;48.956;9.076;2023-04-25T13:15:33;8.77;;;4.72;;
63714;SDS011;49858;48.956;9.076;2023-04-25T13:18:03;8.25;;;4.95;;
63714;SDS011;49858;48.956;9.076;2023-04-25T13:20:32;7.85;;;4.45;;
63714;SDS011;49858;48.956;9.076;2023-04-25T13:23:00;10.18;;;5.72;;
63714;SDS011;49858;48.956;9.076;2023-04-25T13:25:28;13.50;;;6.38;;
63714;SDS011;49858;48.956;9.076;2023-04-25T13:27:57;8.85;;;4.85;;
63714;SDS011;49858;48.956;9.076;2023-04-25T13:30:25;14.63;;;6.90;;
63714;SDS011;49858;48.956;9.076;2023-04-25T13:32:53;11.13;;;5.80;;
63714;SDS011;49858;48.956;9.076;2023-04-25T13:35:23;5.15;;;3.00;;
63714;SDS011;49858;48.956;9.076;2023-04-25T13:37:51;7.65;;;2.25;;
63714;SDS011;49858;48.956;9.076;2023-04-25T13:40:19;2.08;;;1.60;;
63714;SDS011;49858;48.956;9.076;2023-04-25T13:42:50;9.85;;;6.03;;
63714;SDS011;49858;48.956;9.076;2023-04-25T13:45:19;6.03;;;3.47;;
63714;SDS011;49858;48.956;9.076;2023-04-25T13:47:47;4.78;;;2.08;;
63714;SDS011;49858;48.956;9.076;2023-04-25T13:50:15;10.85;;;3.95;;
63714;SDS011;49858;48.956;9.076;2023-04-25T13:52:52;8.80;;;5.07;;
63714;SDS011;49858;48.956;9.076;2023-04-25T13:55:20;9.65;;;4.32;;
63714;SDS011;49858;48.956;9.076;2023-04-25T13:57:48;6.40;;;4.00;;
63714;SDS011;49858;48.956;9.076;2023-04-25T14:00:16;4.47;;;3.20;;
63714;SDS011;49858;48.956;9.076;2023-04-25T14:02:46;3.33;;;2.60;;
63714;SDS011;49858;48.956;9.076;2023-04-25T14:05:16;3.35;;;2.55;;
63714;SDS011;49858;48.956;9.076;2023-04-25T14:07:44;6.28;;;1.88;;
63714;SDS011;49858;48.956;9.076;2023-04-25T14:10:12;7.57;;;4.45;;
63714;SDS011;49858;48.956;9.076;2023-04-25T14:12:41;15.25;;;5.22;;
63714;SDS011;49858;48.956;9.076;2023-04-25T14:15:10;4.15;;;2.08;;
63714;SDS011;49858;48.956;9.076;2023-04-25T14:17:38;5.65;;;2.92;;
63714;SDS011;49858;48.956;9.076;2023-04-25T14:20:08;3.35;;;2.60;;
63714;SDS011;49858;48.956;9.076;2023-04-25T14:22:37;0.82;;;0.82;;
63714;SDS011;49858;48.956;9.076;2023-04-25T14:25:10;2.80;;;2.58;;
63714;SDS011;49858;48.956;9.076;2023-04-25T14:27:38;2.55;;;1.50;;
63714;SDS011;49858;48.956;9.076;2023-04-25T14:30:06;1.10;;;1.05;;
63714;SDS011;49858;48.956;9.076;2023-04-25T14:32:35;2.95;;;1.10;;
63714;SDS011;49858;48.956;9.076;2023-04-25T14:35:05;3.00;;;1.95;;
63714;SDS011;49858;48.956;9.076;2023-04-25T14:37:36;2.50;;;1.98;;
63714;SDS011;49858;48.956;9.076;2023-04-25T14:40:04;3.13;;;1.55;;
63714;SDS011;49858;48.956;9.076;2023-04-25T14:42:35;1.52;;;1.33;;
63714;SDS011;49858;48.956;9.076;2023-04-25T14:45:03;4.53;;;1.98;;
63714;SDS011;49858;48.956;9.076;2023-04-25T14:47:31;0.65;;;0.63;;
63714;SDS011;49858;48.956;9.076;2023-04-25T14:49:59;2.33;;;1.65;;
63714;SDS011;49858;48.956;9.076;2023-04-25T14:52:29;2.20;;;1.63;;
63714;SDS011;49858;48.956;9.076;2023-04-25T14:54:57;3.38;;;2.55;;
63714;SDS011;49858;48.956;9.076;2023-04-25T14:57:28;6.53;;;2.17;;
63714;SDS011;49858;48.956;9.076;2023-04-25T14:59:55;4.45;;;2.60;;
63714;SDS011;49858;48.956;9.076;2023-04-25T15:02:23;1.92;;;1.20;;
63714;SDS011;49858;48.956;9.076;2023-04-25T15:04:52;5.65;;;1.35;;
63714;SDS011;49858;48.956;9.076;2023-04-25T15:07:20;0.77;;;0.77;;
63714;SDS011;49858;48.956;9.076;2023-04-25T15:09:50;2.78;;;1.50;;
63714;SDS011;49858;48.956;9.076;2023-04-25T15:12:19;3.13;;;1.55;;
63714;SDS011;49858;48.956;9.076;2023-04-25T15:14:47;3.38;;;2.90;;
63714;SDS011;49858;48.956;9.076;2023-04-25T15:17:15;3.25;;;1.73;;
63714;SDS011;49858;48.956;9.076;2023-04-25T15:19:43;1.40;;;1.17;;
63714;SDS011;49858;48.956;9.076;2023-04-25T15:22:11;1.40;;;1.00;;
63714;SDS011;49858;48.956;9.076;2023-04-25T15:24:38;1.75;;;1.63;;